Aviation Digital Data Service (ADDS)

Output produced by METARs form (0559 UTC 22 October 2018)
found at http://www.aviationweather.gov/metar/data/
 
METAR text: RJSR 220500Z 00000KT 9999 FEW030 SCT/// 19/05 Q1023
Conditions at: RJSR (ODATE-NOSHIRO , JP) observed 0500 UTC 22 October 2018
Temperature: 19.0°C (66°F)
Dewpoint: 5.0°C (41°F) [RH = 40%]
Pressure (altimeter): 30.21 inches Hg (1023.0 mb)
Winds: calm
Visibility: 6 or more miles (10+ km)
Ceiling: at least 12,000 feet AGL
Clouds: few clouds at 3000 feet AGL
Weather: no significant weather observed at this time